createdAt,value
2023-04-15T04:30:49.180Z,650.63
2023-04-15T04:33:15.821Z,648.20
2023-04-15T04:35:42.463Z,647.22
2023-04-15T04:38:09.047Z,646.92
2023-04-15T04:40:35.677Z,649.47
2023-04-15T04:43:02.660Z,651.42
2023-04-15T04:45:29.278Z,653.03
2023-04-15T04:47:56.029Z,654.85
2023-04-15T04:50:22.799Z,654.58
2023-04-15T04:52:49.479Z,655.27
2023-04-15T04:55:16.655Z,655.95
2023-04-15T04:57:43.283Z,656.03
2023-04-15T05:00:10.398Z,656.65
2023-04-15T05:02:37.251Z,658.38
2023-04-15T05:05:04.171Z,657.55
2023-04-15T05:07:31.112Z,659.95
2023-04-15T05:09:57.718Z,657.33
2023-04-15T05:12:24.350Z,653.38
2023-04-15T05:14:51.223Z,654.80
2023-04-15T05:17:17.949Z,655.72
2023-04-15T05:19:44.631Z,655.15
2023-04-15T05:22:11.267Z,656.53
2023-04-15T05:24:37.904Z,656.63
2023-04-15T05:27:04.691Z,653.80
2023-04-15T05:29:31.292Z,651.05
2023-04-15T05:31:58.017Z,654.90
2023-04-15T05:34:24.646Z,657.80
2023-04-15T05:36:51.230Z,646.25
2023-04-15T05:39:17.942Z,654.00
2023-04-15T05:41:44.897Z,654.95
2023-04-15T05:44:11.645Z,650.47
2023-04-15T05:46:38.580Z,656.75
2023-04-15T05:49:05.265Z,656.63
2023-04-15T05:51:31.925Z,663.58
2023-04-15T05:53:58.618Z,666.20
2023-04-15T05:56:26.966Z,666.27
2023-04-15T05:58:54.292Z,662.40
2023-04-15T06:01:21.220Z,666.75
2023-04-15T06:03:48.762Z,681.17
2023-04-15T06:06:15.550Z,705.70
2023-04-15T06:08:42.484Z,709.70
2023-04-15T06:11:09.111Z,712.53
2023-04-15T06:13:35.761Z,719.67
2023-04-15T06:16:02.403Z,719.08
2023-04-15T06:18:30.824Z,720.88
2023-04-15T06:20:57.611Z,718.50
2023-04-15T06:23:25.241Z,723.72
2023-04-15T06:25:53.704Z,731.13
2023-04-15T06:28:20.437Z,730.03
2023-04-15T06:30:47.137Z,733.47
2023-04-15T06:33:13.778Z,739.97
2023-04-15T06:35:40.525Z,736.88
2023-04-15T06:38:07.120Z,738.78
2023-04-15T06:40:33.872Z,740.67
2023-04-15T06:43:00.463Z,739.65
2023-04-15T06:45:27.459Z,749.17
2023-04-15T06:47:54.228Z,756.08
2023-04-15T06:50:20.862Z,754.70
2023-04-15T06:52:47.647Z,762.47
2023-04-15T06:55:14.907Z,766.80
2023-04-15T06:57:41.596Z,768.03
2023-04-15T07:00:11.047Z,764.25
2023-04-15T07:02:37.885Z,778.88
2023-04-15T07:05:06.850Z,780.47
2023-04-15T07:07:33.548Z,792.47
2023-04-15T07:10:02.061Z,791.35
2023-04-15T07:12:28.794Z,794.97
2023-04-15T07:14:55.792Z,791.70
2023-04-15T07:17:22.462Z,798.20
2023-04-15T07:19:49.220Z,789.58
2023-04-15T07:22:15.995Z,798.40
2023-04-15T07:24:42.648Z,804.00
2023-04-15T07:27:09.271Z,802.38
2023-04-15T07:29:36.139Z,831.90
2023-04-15T07:32:03.096Z,826.00
2023-04-15T07:34:30.812Z,819.65
2023-04-15T07:36:58.733Z,830.70
2023-04-15T07:39:25.803Z,832.53
2023-04-15T07:41:52.468Z,835.43
2023-04-15T07:44:19.162Z,823.88
2023-04-15T07:46:46.064Z,823.58
2023-04-15T07:49:13.347Z,834.45
2023-04-15T07:51:40.143Z,830.30
2023-04-15T07:54:07.399Z,834.45
2023-04-15T07:56:34.016Z,833.28
2023-04-15T07:59:02.470Z,843.90
2023-04-15T08:01:29.349Z,837.87
2023-04-15T08:03:56.114Z,845.35
2023-04-15T08:06:22.911Z,849.90
2023-04-15T08:08:49.678Z,849.45
2023-04-15T08:11:16.860Z,862.75
2023-04-15T08:13:43.498Z,856.38
2023-04-15T08:16:24.885Z,865.85
2023-04-15T08:18:54.001Z,868.35
2023-04-15T08:21:20.865Z,876.83
2023-04-15T08:23:50.146Z,873.22
2023-04-15T08:26:17.620Z,869.85
2023-04-15T08:28:45.419Z,877.05
2023-04-15T08:31:16.227Z,885.95
2023-04-15T08:33:43.173Z,890.00
2023-04-15T08:36:10.133Z,891.03
2023-04-15T08:38:37.240Z,905.58
2023-04-15T08:41:13.563Z,904.90
2023-04-15T08:43:48.903Z,916.72
2023-04-15T08:46:16.496Z,943.88
2023-04-15T08:48:44.213Z,954.78
2023-04-15T08:51:11.206Z,966.75
2023-04-15T08:53:37.939Z,987.45
2023-04-15T08:56:07.076Z,1020.70
2023-04-15T08:58:34.338Z,1039.80
2023-04-15T09:01:01.607Z,1049.20
2023-04-15T09:03:29.011Z,1051.82
2023-04-15T09:05:57.295Z,1055.17
2023-04-15T09:08:23.958Z,1053.22
2023-04-15T09:10:51.326Z,1053.15
2023-04-15T09:13:18.709Z,1056.57
2023-04-15T09:15:45.919Z,1056.63
2023-04-15T09:18:13.724Z,1051.30
2023-04-15T09:20:44.577Z,1048.88
2023-04-15T09:23:15.603Z,1043.40
2023-04-15T09:25:42.633Z,1043.32
2023-04-15T09:28:09.779Z,1044.63
2023-04-15T09:30:36.818Z,1041.43
2023-04-15T09:33:08.090Z,1040.60
2023-04-15T09:35:36.617Z,1041.73
2023-04-15T09:38:08.174Z,1039.95
2023-04-15T09:40:40.982Z,1037.70
2023-04-15T09:43:09.698Z,1037.80
2023-04-15T09:45:37.131Z,1040.63
2023-04-15T09:48:21.126Z,1039.40
2023-04-15T09:50:50.996Z,1021.50
2023-04-15T09:53:23.127Z,1004.55
2023-04-15T09:55:52.481Z,993.17
2023-04-15T09:58:27.371Z,985.45
2023-04-15T10:00:56.445Z,987.45
2023-04-15T10:03:28.820Z,977.40
2023-04-15T10:05:57.406Z,973.15
2023-04-15T10:08:28.990Z,969.10
2023-04-15T10:10:56.214Z,968.00
2023-04-15T10:13:28.730Z,960.50
2023-04-15T10:15:59.347Z,946.65
2023-04-15T10:18:28.486Z,946.70
2023-04-15T10:20:55.517Z,942.40
2023-04-15T10:23:24.389Z,948.72
2023-04-15T10:25:53.285Z,935.72
2023-04-15T10:28:21.242Z,942.60
2023-04-15T10:30:49.596Z,935.55
2023-04-15T10:33:21.122Z,940.72
2023-04-15T10:35:51.730Z,943.75
2023-04-15T10:38:45.797Z,942.58
2023-04-15T10:41:34.325Z,940.00
2023-04-15T10:44:03.766Z,950.70
2023-04-15T10:46:38.204Z,955.30
2023-04-15T10:49:24.573Z,960.30
2023-04-15T10:51:59.207Z,966.88
2023-04-15T10:54:25.764Z,975.10
2023-04-15T10:57:06.419Z,976.97
2023-04-15T10:59:37.274Z,987.00
2023-04-15T11:02:05.931Z,987.60
2023-04-15T11:04:51.353Z,994.40
2023-04-15T11:07:43.499Z,1009.30
2023-04-15T11:10:36.195Z,1030.03
2023-04-15T11:13:17.065Z,1045.93
2023-04-15T11:15:45.438Z,1058.57
2023-04-15T11:18:22.366Z,1071.90
2023-04-15T11:20:51.608Z,1091.45
2023-04-15T11:23:20.144Z,1087.30
2023-04-15T11:25:47.485Z,1094.82
2023-04-15T11:28:14.393Z,1095.63
2023-04-15T11:30:42.599Z,1099.80
2023-04-15T11:33:12.124Z,1103.05
2023-04-15T11:35:40.934Z,1093.57
2023-04-15T11:38:12.907Z,1089.40
2023-04-15T11:40:40.317Z,1074.22
2023-04-15T11:43:18.482Z,1067.88
2023-04-15T11:45:59.659Z,1066.00
2023-04-15T11:48:26.386Z,1063.80
2023-04-15T11:50:57.954Z,1059.75
2023-04-15T11:53:35.713Z,1058.07
2023-04-15T11:56:02.723Z,1054.13
2023-04-15T11:58:29.708Z,1031.32
2023-04-15T12:01:01.177Z,1017.53
2023-04-15T12:03:30.161Z,1005.60
2023-04-15T12:06:24.427Z,994.63
2023-04-15T12:08:55.121Z,994.17
2023-04-15T12:11:32.544Z,992.58
2023-04-15T12:14:04.575Z,987.53
2023-04-15T12:16:31.870Z,989.00
2023-04-15T12:19:00.182Z,992.22
2023-04-15T12:21:33.809Z,981.08
2023-04-15T12:24:04.312Z,975.83
2023-04-15T12:26:37.549Z,980.80
2023-04-15T12:29:08.474Z,984.80
2023-04-15T12:31:39.058Z,984.13
2023-04-15T12:34:09.041Z,996.13
2023-04-15T12:36:38.423Z,1007.10
2023-04-15T12:39:06.265Z,1017.10
2023-04-15T12:41:33.607Z,1007.90
2023-04-15T12:44:00.761Z,1010.47
2023-04-15T12:46:27.646Z,1003.77
2023-04-15T12:48:54.409Z,1001.20
2023-04-15T12:51:21.803Z,1003.28
2023-04-15T12:53:49.624Z,991.42
2023-04-15T12:56:19.855Z,985.40
2023-04-15T12:58:46.489Z,982.25
2023-04-15T13:01:13.126Z,973.03
2023-04-15T13:03:39.897Z,975.95
2023-04-15T13:06:06.849Z,975.85
2023-04-15T13:08:33.605Z,978.00
2023-04-15T13:11:00.949Z,966.50
2023-04-15T13:13:27.913Z,971.30
2023-04-15T13:15:54.613Z,966.80
2023-04-15T13:18:21.482Z,969.47
2023-04-15T13:20:48.121Z,966.45
2023-04-15T13:23:15.387Z,974.60
2023-04-15T13:25:42.356Z,966.57
2023-04-15T13:28:11.239Z,959.67
2023-04-15T13:30:38.945Z,963.53
2023-04-15T13:33:06.539Z,961.05
2023-04-15T13:35:33.770Z,949.08
2023-04-15T13:38:00.396Z,954.95
2023-04-15T13:40:27.435Z,955.22
2023-04-15T13:42:54.185Z,933.60
2023-04-15T13:45:21.106Z,949.20
2023-04-15T13:47:47.813Z,944.83
2023-04-15T13:50:14.593Z,922.00
2023-04-15T13:52:41.198Z,923.08
2023-04-15T13:55:19.318Z,942.83
2023-04-15T13:57:48.015Z,943.80
2023-04-15T14:00:15.443Z,936.05
2023-04-15T14:02:42.586Z,943.23
2023-04-15T14:05:10.353Z,950.47
2023-04-15T14:07:37.260Z,950.25
2023-04-15T14:10:04.428Z,959.65
2023-04-15T14:12:31.182Z,960.90
2023-04-15T14:14:57.817Z,964.60
2023-04-15T14:17:24.697Z,965.60
2023-04-15T14:19:51.314Z,958.88
2023-04-15T14:22:18.901Z,966.80
2023-04-15T14:24:45.759Z,971.45
2023-04-15T14:27:12.535Z,971.00
2023-04-15T14:29:39.216Z,973.75
2023-04-15T14:32:12.362Z,967.95
2023-04-15T14:34:40.335Z,969.42
2023-04-15T14:37:07.053Z,971.40
2023-04-15T14:39:33.760Z,973.05
2023-04-15T14:42:01.254Z,963.05
2023-04-15T14:44:27.923Z,956.85
2023-04-15T14:46:54.876Z,942.22
2023-04-15T14:49:21.585Z,947.78
2023-04-15T14:51:48.197Z,952.25
2023-04-15T14:54:15.371Z,953.53
2023-04-15T14:56:42.011Z,937.42
2023-04-15T14:59:08.672Z,927.20
2023-04-15T15:01:35.568Z,927.95
2023-04-15T15:04:02.352Z,923.83
2023-04-15T15:06:29.086Z,924.28
2023-04-15T15:08:55.944Z,919.83
2023-04-15T15:11:22.617Z,924.92
2023-04-15T15:13:49.304Z,923.42
2023-04-15T15:16:16.247Z,917.20
2023-04-15T15:18:42.952Z,925.08
2023-04-15T15:21:10.450Z,919.67
2023-04-15T15:23:37.047Z,918.83
2023-04-15T15:26:03.858Z,912.70
2023-04-15T15:28:30.523Z,918.88
2023-04-15T15:30:57.173Z,915.33
2023-04-15T15:33:23.894Z,916.70
2023-04-15T15:35:51.096Z,915.00
2023-04-15T15:38:17.877Z,911.00
2023-04-15T15:40:44.520Z,911.70
2023-04-15T15:43:11.224Z,913.15
2023-04-15T15:45:37.918Z,909.75
2023-04-15T15:48:05.099Z,907.55
2023-04-15T15:50:31.880Z,908.07
2023-04-15T15:52:59.006Z,898.70
2023-04-15T15:55:27.101Z,903.67
2023-04-15T15:57:54.329Z,896.90
2023-04-15T16:00:21.802Z,898.07
2023-04-15T16:03:05.857Z,895.30
2023-04-15T16:05:34.672Z,902.10
2023-04-15T16:08:01.716Z,892.90
2023-04-15T16:10:28.902Z,891.88
2023-04-15T16:12:55.735Z,891.83
2023-04-15T16:15:23.908Z,884.53
2023-04-15T16:17:50.985Z,890.75
2023-04-15T16:20:17.826Z,882.92
2023-04-15T16:22:44.659Z,875.92
2023-04-15T16:25:11.318Z,881.92
2023-04-15T16:27:54.222Z,873.58
2023-04-15T16:30:25.004Z,862.45
2023-04-15T16:32:51.937Z,859.88
2023-04-15T16:35:18.723Z,853.30
2023-04-15T16:37:45.540Z,851.83
2023-04-15T16:40:12.628Z,852.65
2023-04-15T16:42:39.834Z,860.55
2023-04-15T16:45:07.043Z,856.92
2023-04-15T16:47:33.671Z,853.05
2023-04-15T16:50:00.352Z,854.22
2023-04-15T16:52:28.811Z,851.13
2023-04-15T16:54:55.861Z,840.28
2023-04-15T16:57:22.483Z,847.75
2023-04-15T16:59:51.667Z,848.67
2023-04-15T17:02:18.505Z,840.53
2023-04-15T17:04:45.243Z,840.67
2023-04-15T17:07:11.853Z,840.58
2023-04-15T17:09:40.320Z,840.60
2023-04-15T17:12:07.386Z,841.30
2023-04-15T17:14:34.990Z,831.60
2023-04-15T17:17:01.888Z,835.10
2023-04-15T17:19:28.734Z,831.90
2023-04-15T17:21:55.409Z,828.40
2023-04-15T17:24:22.144Z,833.20
2023-04-15T17:26:48.774Z,832.90
2023-04-15T17:29:15.396Z,834.15
2023-04-15T17:31:42.350Z,841.95
2023-04-15T17:34:10.056Z,843.38
2023-04-15T17:36:38.006Z,838.47
2023-04-15T17:39:04.881Z,852.60
2023-04-15T17:41:31.736Z,847.95
2023-04-15T17:43:58.416Z,852.42
2023-04-15T17:46:25.173Z,861.80
2023-04-15T17:48:51.831Z,855.05
2023-04-15T17:51:18.464Z,845.43
2023-04-15T17:53:45.101Z,859.92
2023-04-15T17:56:11.849Z,850.40
2023-04-15T17:58:39.258Z,847.28
2023-04-15T18:01:06.328Z,859.00
2023-04-15T18:03:33.110Z,854.60
2023-04-15T18:06:01.190Z,853.78
2023-04-15T18:08:28.764Z,850.17
2023-04-15T18:10:55.437Z,861.25
2023-04-15T18:13:22.175Z,858.10
2023-04-15T18:15:50.727Z,862.67
2023-04-15T18:18:17.511Z,853.47
2023-04-15T18:20:44.246Z,857.28
2023-04-15T18:23:11.224Z,866.20
2023-04-15T18:25:38.311Z,857.37
2023-04-15T18:28:05.519Z,849.45
2023-04-15T18:30:32.298Z,850.58
2023-04-15T18:32:58.994Z,845.97
2023-04-15T18:35:25.697Z,842.85
2023-04-15T18:37:52.997Z,810.80
2023-04-15T18:40:19.696Z,818.28
2023-04-15T18:42:46.340Z,821.15
2023-04-15T18:45:12.979Z,806.57
2023-04-15T18:47:39.761Z,796.13
2023-04-15T18:50:08.104Z,807.10
2023-04-15T18:52:34.823Z,810.40
2023-04-15T18:55:03.198Z,806.35
2023-04-15T18:57:35.021Z,810.90
2023-04-15T19:00:02.790Z,818.83
2023-04-15T19:02:29.570Z,834.60
2023-04-15T19:04:56.291Z,831.88
2023-04-15T19:07:23.211Z,837.95
2023-04-15T19:09:49.878Z,845.03
2023-04-15T19:12:16.622Z,841.90
2023-04-15T19:14:43.273Z,841.80
2023-04-15T19:17:09.867Z,853.55
2023-04-15T19:19:36.720Z,856.92
2023-04-15T19:22:03.366Z,859.38
2023-04-15T19:24:32.991Z,858.47
2023-04-15T19:27:00.028Z,864.65
2023-04-15T19:29:28.537Z,857.28
2023-04-15T19:31:55.921Z,861.25
2023-04-15T19:34:22.556Z,865.47
2023-04-15T19:36:49.211Z,854.03
2023-04-15T19:39:16.120Z,863.13
2023-04-15T19:41:44.255Z,861.17
2023-04-15T19:44:14.008Z,848.80
2023-04-15T19:46:41.168Z,858.95
2023-04-15T19:49:07.892Z,856.77
2023-04-15T19:51:34.728Z,856.63
2023-04-15T19:54:01.416Z,854.20
2023-04-15T19:56:28.051Z,854.03
2023-04-15T19:58:55.210Z,854.45
2023-04-15T20:01:22.626Z,857.60
2023-04-15T20:03:49.410Z,858.47
2023-04-15T20:06:16.141Z,847.05
2023-04-15T20:08:42.926Z,848.40
2023-04-15T20:11:10.245Z,859.13
2023-04-15T20:13:36.989Z,858.05
2023-04-15T20:16:05.786Z,852.67
2023-04-15T20:18:32.596Z,856.28
2023-04-15T20:20:59.434Z,867.03
2023-04-15T20:23:26.053Z,857.67
2023-04-15T20:25:52.680Z,855.20
2023-04-15T20:28:19.505Z,851.17
2023-04-15T20:30:47.191Z,845.60
2023-04-15T20:33:14.390Z,840.67
2023-04-15T20:35:41.120Z,843.60
2023-04-15T20:38:07.831Z,843.33
2023-04-15T20:40:34.429Z,844.33
2023-04-15T20:43:01.175Z,836.47
2023-04-15T20:45:27.780Z,845.50
2023-04-15T20:47:56.043Z,850.73
2023-04-15T20:50:22.762Z,842.90
2023-04-15T20:52:49.462Z,852.20
2023-04-15T20:55:16.190Z,863.15
2023-04-15T20:57:42.947Z,855.53
2023-04-15T21:00:10.903Z,864.25
2023-04-15T21:02:38.292Z,865.65
2023-04-15T21:05:05.796Z,848.20
2023-04-15T21:07:32.476Z,849.47
2023-04-15T21:09:59.143Z,836.50
2023-04-15T21:12:25.781Z,832.60
2023-04-15T21:14:52.531Z,841.30
2023-04-15T21:17:19.478Z,839.85
2023-04-15T21:19:46.127Z,835.95
2023-04-15T21:22:12.749Z,843.10
2023-04-15T21:24:39.369Z,836.53
2023-04-15T21:27:06.362Z,838.50
2023-04-15T21:29:33.039Z,838.50
2023-04-15T21:31:59.681Z,829.08
2023-04-15T21:34:26.515Z,824.28
2023-04-15T21:36:53.171Z,822.50
2023-04-15T21:39:19.818Z,824.65
2023-04-15T21:41:46.592Z,817.85
2023-04-15T21:44:14.827Z,823.60
2023-04-15T21:46:42.288Z,831.72
2023-04-15T21:49:13.104Z,814.22
2023-04-15T21:51:39.746Z,816.00
2023-04-15T21:54:06.390Z,831.13
2023-04-15T21:56:33.178Z,817.92
2023-04-15T21:58:59.816Z,801.95
2023-04-15T22:01:27.238Z,806.22
2023-04-15T22:03:54.229Z,803.88
2023-04-15T22:06:21.372Z,800.90
2023-04-15T22:08:56.902Z,796.85
2023-04-15T22:11:28.352Z,808.65
2023-04-15T22:13:59.124Z,794.05
2023-04-15T22:16:26.340Z,801.20
2023-04-15T22:18:53.534Z,803.83
2023-04-15T22:21:20.214Z,800.67
2023-04-15T22:23:48.017Z,801.42
2023-04-15T22:26:14.779Z,802.17
2023-04-15T22:28:41.853Z,813.72
2023-04-15T22:31:08.645Z,813.03
2023-04-15T22:33:35.452Z,793.83
2023-04-15T22:36:02.137Z,814.95
2023-04-15T22:38:28.796Z,802.72
2023-04-15T22:40:55.462Z,798.97
2023-04-15T22:43:22.626Z,804.40
2023-04-15T22:45:50.556Z,795.60
2023-04-15T22:48:18.226Z,805.88
2023-04-15T22:50:45.005Z,796.13
2023-04-15T22:53:11.659Z,814.97
2023-04-15T22:55:38.334Z,807.85
2023-04-15T22:58:05.026Z,807.80
2023-04-15T23:00:31.632Z,805.28
2023-04-15T23:02:58.387Z,795.25
2023-04-15T23:05:25.150Z,807.17
2023-04-15T23:07:51.749Z,805.90
2023-04-15T23:10:18.424Z,803.78
2023-04-15T23:12:45.059Z,809.25
2023-04-15T23:15:11.911Z,799.95
2023-04-15T23:17:38.651Z,807.35
2023-04-15T23:20:06.413Z,795.28
2023-04-15T23:22:37.384Z,799.42
2023-04-15T23:25:05.400Z,795.72
2023-04-15T23:27:32.104Z,808.10
2023-04-15T23:29:58.762Z,798.77
